sensor_id;sensor_type;location;lat;lon;timestamp;temperature;humidity
83283;DHT22;73190;50.780;5.658;2023-11-21T00:00:17;11.20;84.90
83283;DHT22;73190;50.780;5.658;2023-11-21T00:02:45;11.10;84.90
83283;DHT22;73190;50.780;5.658;2023-11-21T00:05:13;11.10;86.00
83283;DHT22;73190;50.780;5.658;2023-11-21T00:07:42;11.10;85.10
83283;DHT22;73190;50.780;5.658;2023-11-21T00:10:10;11.20;84.60
83283;DHT22;73190;50.780;5.658;2023-11-21T00:12:40;11.20;85.40
83283;DHT22;73190;50.780;5.658;2023-11-21T00:15:09;11.10;85.50
83283;DHT22;73190;50.780;5.658;2023-11-21T00:17:40;11.20;84.80
83283;DHT22;73190;50.780;5.658;2023-11-21T00:20:09;11.20;84.50
83283;DHT22;73190;50.780;5.658;2023-11-21T00:22:38;11.20;84.80
83283;DHT22;73190;50.780;5.658;2023-11-21T00:25:07;11.20;85.10
83283;DHT22;73190;50.780;5.658;2023-11-21T00:27:36;11.20;84.90
83283;DHT22;73190;50.780;5.658;2023-11-21T00:30:04;11.20;85.00
83283;DHT22;73190;50.780;5.658;2023-11-21T00:32:32;11.20;85.20
83283;DHT22;73190;50.780;5.658;2023-11-21T00:35:00;11.20;84.90
83283;DHT22;73190;50.780;5.658;2023-11-21T00:37:28;11.30;84.80
83283;DHT22;73190;50.780;5.658;2023-11-21T00:39:55;11.20;84.90
83283;DHT22;73190;50.780;5.658;2023-11-21T00:42:23;11.30;84.60
83283;DHT22;73190;50.780;5.658;2023-11-21T00:44:50;11.30;84.40
83283;DHT22;73190;50.780;5.658;2023-11-21T00:47:18;11.30;84.20
83283;DHT22;73190;50.780;5.658;2023-11-21T00:49:45;11.30;84.60
83283;DHT22;73190;50.780;5.658;2023-11-21T00:52:13;11.30;84.80
83283;DHT22;73190;50.780;5.658;2023-11-21T00:54:40;11.20;85.00
83283;DHT22;73190;50.780;5.658;2023-11-21T00:57:08;11.30;84.90
83283;DHT22;73190;50.780;5.658;2023-11-21T00:59:35;11.30;84.90
83283;DHT22;73190;50.780;5.658;2023-11-21T01:02:03;11.30;84.60
83283;DHT22;73190;50.780;5.658;2023-11-21T01:04:31;11.30;84.70
83283;DHT22;73190;50.780;5.658;2023-11-21T01:06:59;11.30;85.10
83283;DHT22;73190;50.780;5.658;2023-11-21T01:09:26;11.30;85.40
83283;DHT22;73190;50.780;5.658;2023-11-21T01:11:54;11.30;85.10
83283;DHT22;73190;50.780;5.658;2023-11-21T01:14:22;11.30;85.00
83283;DHT22;73190;50.780;5.658;2023-11-21T01:16:49;11.30;84.80
83283;DHT22;73190;50.780;5.658;2023-11-21T01:19:17;11.40;84.80
83283;DHT22;73190;50.780;5.658;2023-11-21T01:21:44;11.40;84.60
83283;DHT22;73190;50.780;5.658;2023-11-21T01:24:12;11.30;84.60
83283;DHT22;73190;50.780;5.658;2023-11-21T01:26:39;11.30;84.70
83283;DHT22;73190;50.780;5.658;2023-11-21T01:29:07;11.30;84.80
83283;DHT22;73190;50.780;5.658;2023-11-21T01:31:34;11.30;84.90
83283;DHT22;73190;50.780;5.658;2023-11-21T01:34:02;11.30;85.10
83283;DHT22;73190;50.780;5.658;2023-11-21T01:36:32;11.30;85.20
83283;DHT22;73190;50.780;5.658;2023-11-21T01:39:00;11.30;85.20
83283;DHT22;73190;50.780;5.658;2023-11-21T01:41:28;11.30;85.30
83283;DHT22;73190;50.780;5.658;2023-11-21T01:43:56;11.20;85.40
83283;DHT22;73190;50.780;5.658;2023-11-21T01:46:23;11.30;85.50
83283;DHT22;73190;50.780;5.658;2023-11-21T01:48:51;11.20;85.50
83283;DHT22;73190;50.780;5.658;2023-11-21T01:51:20;11.20;85.30
83283;DHT22;73190;50.780;5.658;2023-11-21T01:53:47;11.20;85.60
83283;DHT22;73190;50.780;5.658;2023-11-21T01:56:15;11.20;85.50
83283;DHT22;73190;50.780;5.658;2023-11-21T01:58:42;11.20;85.40
83283;DHT22;73190;50.780;5.658;2023-11-21T02:01:10;11.20;85.20
83283;DHT22;73190;50.780;5.658;2023-11-21T02:03:38;11.30;84.70
83283;DHT22;73190;50.780;5.658;2023-11-21T02:06:05;11.30;84.90
83283;DHT22;73190;50.780;5.658;2023-11-21T02:08:33;11.30;84.80
83283;DHT22;73190;50.780;5.658;2023-11-21T02:11:01;11.20;84.80
83283;DHT22;73190;50.780;5.658;2023-11-21T02:13:29;11.20;84.70
83283;DHT22;73190;50.780;5.658;2023-11-21T02:15:56;11.30;84.80
83283;DHT22;73190;50.780;5.658;2023-11-21T02:18:24;11.30;84.70
83283;DHT22;73190;50.780;5.658;2023-11-21T02:20:52;11.20;85.10
83283;DHT22;73190;50.780;5.658;2023-11-21T02:23:19;11.20;85.40
83283;DHT22;73190;50.780;5.658;2023-11-21T02:25:47;11.20;85.40
83283;DHT22;73190;50.780;5.658;2023-11-21T02:28:15;11.10;85.60
83283;DHT22;73190;50.780;5.658;2023-11-21T02:30:44;11.10;85.80
83283;DHT22;73190;50.780;5.658;2023-11-21T02:33:11;11.10;85.90
83283;DHT22;73190;50.780;5.658;2023-11-21T02:35:39;11.20;85.50
83283;DHT22;73190;50.780;5.658;2023-11-21T02:38:06;11.20;86.20
83283;DHT22;73190;50.780;5.658;2023-11-21T02:40:34;11.20;85.50
83283;DHT22;73190;50.780;5.658;2023-11-21T02:43:01;11.20;85.40
83283;DHT22;73190;50.780;5.658;2023-11-21T02:45:29;11.10;85.60
83283;DHT22;73190;50.780;5.658;2023-11-21T02:47:57;11.20;85.30
83283;DHT22;73190;50.780;5.658;2023-11-21T02:50:24;11.20;85.40
83283;DHT22;73190;50.780;5.658;2023-11-21T02:52:52;11.20;85.60
83283;DHT22;73190;50.780;5.658;2023-11-21T02:55:20;11.20;85.70
83283;DHT22;73190;50.780;5.658;2023-11-21T02:57:47;11.10;85.70
83283;DHT22;73190;50.780;5.658;2023-11-21T03:00:15;11.10;85.80
83283;DHT22;73190;50.780;5.658;2023-11-21T03:02:43;11.20;85.80
83283;DHT22;73190;50.780;5.658;2023-11-21T03:05:11;11.20;85.60
83283;DHT22;73190;50.780;5.658;2023-11-21T03:07:39;11.20;85.50
83283;DHT22;73190;50.780;5.658;2023-11-21T03:10:11;11.20;85.40
83283;DHT22;73190;50.780;5.658;2023-11-21T03:12:40;11.30;84.90
83283;DHT22;73190;50.780;5.658;2023-11-21T03:15:08;11.30;85.10
83283;DHT22;73190;50.780;5.658;2023-11-21T03:17:39;11.20;85.20
83283;DHT22;73190;50.780;5.658;2023-11-21T03:20:09;11.30;85.40
83283;DHT22;73190;50.780;5.658;2023-11-21T03:22:40;11.30;85.40
83283;DHT22;73190;50.780;5.658;2023-11-21T03:25:09;11.30;85.20
83283;DHT22;73190;50.780;5.658;2023-11-21T03:27:37;11.30;85.30
83283;DHT22;73190;50.780;5.658;2023-11-21T03:30:07;11.30;85.50
83283;DHT22;73190;50.780;5.658;2023-11-21T03:32:35;11.30;85.50
83283;DHT22;73190;50.780;5.658;2023-11-21T03:35:02;11.30;85.50
83283;DHT22;73190;50.780;5.658;2023-11-21T03:37:30;11.30;85.60
83283;DHT22;73190;50.780;5.658;2023-11-21T03:39:57;11.30;85.40
83283;DHT22;73190;50.780;5.658;2023-11-21T03:42:25;11.30;85.20
83283;DHT22;73190;50.780;5.658;2023-11-21T03:44:53;11.30;85.10
83283;DHT22;73190;50.780;5.658;2023-11-21T03:47:20;11.30;85.00
83283;DHT22;73190;50.780;5.658;2023-11-21T03:49:48;11.40;84.90
83283;DHT22;73190;50.780;5.658;2023-11-21T03:52:15;11.30;85.00
83283;DHT22;73190;50.780;5.658;2023-11-21T03:54:43;11.30;85.10
83283;DHT22;73190;50.780;5.658;2023-11-21T03:57:11;11.30;85.30
83283;DHT22;73190;50.780;5.658;2023-11-21T03:59:42;11.30;85.70
83283;DHT22;73190;50.780;5.658;2023-11-21T04:02:10;11.30;85.50
83283;DHT22;73190;50.780;5.658;2023-11-21T04:04:38;11.30;85.40
83283;DHT22;73190;50.780;5.658;2023-11-21T04:07:05;11.40;85.60
83283;DHT22;73190;50.780;5.658;2023-11-21T04:09:33;11.40;85.40
83283;DHT22;73190;50.780;5.658;2023-11-21T04:12:01;11.40;85.60
83283;DHT22;73190;50.780;5.658;2023-11-21T04:14:29;11.30;85.30
83283;DHT22;73190;50.780;5.658;2023-11-21T04:16:56;11.30;85.30
83283;DHT22;73190;50.780;5.658;2023-11-21T04:19:24;11.40;85.10
83283;DHT22;73190;50.780;5.658;2023-11-21T04:21:53;11.40;84.80
83283;DHT22;73190;50.780;5.658;2023-11-21T04:24:20;11.50;84.90
83283;DHT22;73190;50.780;5.658;2023-11-21T04:26:48;11.40;84.80
83283;DHT22;73190;50.780;5.658;2023-11-21T04:29:15;11.40;85.00
83283;DHT22;73190;50.780;5.658;2023-11-21T04:32:02;11.40;85.20
83283;DHT22;73190;50.780;5.658;2023-11-21T04:34:30;11.40;85.30
83283;DHT22;73190;50.780;5.658;2023-11-21T04:36:58;11.40;85.20
83283;DHT22;73190;50.780;5.658;2023-11-21T04:39:29;11.50;85.00
83283;DHT22;73190;50.780;5.658;2023-11-21T04:41:57;11.50;85.10
83283;DHT22;73190;50.780;5.658;2023-11-21T04:44:24;11.40;85.10
83283;DHT22;73190;50.780;5.658;2023-11-21T04:46:52;11.50;85.00
83283;DHT22;73190;50.780;5.658;2023-11-21T04:49:20;11.40;85.40
83283;DHT22;73190;50.780;5.658;2023-11-21T04:51:48;11.40;85.20
83283;DHT22;73190;50.780;5.658;2023-11-21T04:54:15;11.40;85.20
83283;DHT22;73190;50.780;5.658;2023-11-21T04:56:43;11.40;85.50
83283;DHT22;73190;50.780;5.658;2023-11-21T04:59:11;11.40;85.40
83283;DHT22;73190;50.780;5.658;2023-11-21T05:01:38;11.40;85.50
83283;DHT22;73190;50.780;5.658;2023-11-21T05:04:06;11.40;85.40
83283;DHT22;73190;50.780;5.658;2023-11-21T05:06:35;11.30;86.10
83283;DHT22;73190;50.780;5.658;2023-11-21T05:09:03;11.30;86.00
83283;DHT22;73190;50.780;5.658;2023-11-21T05:11:30;11.40;85.90
83283;DHT22;73190;50.780;5.658;2023-11-21T05:13:58;11.40;85.60
83283;DHT22;73190;50.780;5.658;2023-11-21T05:16:28;11.50;85.40
83283;DHT22;73190;50.780;5.658;2023-11-21T05:18:55;11.50;85.30
83283;DHT22;73190;50.780;5.658;2023-11-21T05:21:27;11.50;85.30
83283;DHT22;73190;50.780;5.658;2023-11-21T05:23:56;11.50;86.10
83283;DHT22;73190;50.780;5.658;2023-11-21T05:26:24;11.50;85.40
83283;DHT22;73190;50.780;5.658;2023-11-21T05:28:52;11.50;85.50
83283;DHT22;73190;50.780;5.658;2023-11-21T05:31:19;11.50;85.40
83283;DHT22;73190;50.780;5.658;2023-11-21T05:33:47;11.50;85.50
83283;DHT22;73190;50.780;5.658;2023-11-21T05:36:15;11.50;85.60
83283;DHT22;73190;50.780;5.658;2023-11-21T05:38:42;11.60;85.60
83283;DHT22;73190;50.780;5.658;2023-11-21T05:41:10;11.60;85.20
83283;DHT22;73190;50.780;5.658;2023-11-21T05:43:40;11.60;85.00
83283;DHT22;73190;50.780;5.658;2023-11-21T05:46:07;11.60;85.00
83283;DHT22;73190;50.780;5.658;2023-11-21T05:48:35;11.70;84.80
83283;DHT22;73190;50.780;5.658;2023-11-21T05:51:05;11.60;85.20
83283;DHT22;73190;50.780;5.658;2023-11-21T05:53:33;11.50;85.40
83283;DHT22;73190;50.780;5.658;2023-11-21T05:56:01;11.60;85.60
83283;DHT22;73190;50.780;5.658;2023-11-21T05:58:30;11.60;85.40
83283;DHT22;73190;50.780;5.658;2023-11-21T06:00:57;11.60;85.50
83283;DHT22;73190;50.780;5.658;2023-11-21T06:03:25;11.50;85.50
83283;DHT22;73190;50.780;5.658;2023-11-21T06:05:53;11.60;85.40
83283;DHT22;73190;50.780;5.658;2023-11-21T06:08:20;11.70;84.60
83283;DHT22;73190;50.780;5.658;2023-11-21T06:10:49;11.60;84.70
83283;DHT22;73190;50.780;5.658;2023-11-21T06:13:16;11.80;83.60
83283;DHT22;73190;50.780;5.658;2023-11-21T06:15:45;11.60;84.50
83283;DHT22;73190;50.780;5.658;2023-11-21T06:18:13;11.60;85.00
83283;DHT22;73190;50.780;5.658;2023-11-21T06:20:41;11.50;85.50
83283;DHT22;73190;50.780;5.658;2023-11-21T06:23:08;11.50;85.40
83283;DHT22;73190;50.780;5.658;2023-11-21T06:25:36;11.50;85.10
83283;DHT22;73190;50.780;5.658;2023-11-21T06:28:04;11.50;85.60
83283;DHT22;73190;50.780;5.658;2023-11-21T06:30:33;11.50;85.60
83283;DHT22;73190;50.780;5.658;2023-11-21T06:33:00;11.50;85.60
83283;DHT22;73190;50.780;5.658;2023-11-21T06:35:28;11.50;85.30
83283;DHT22;73190;50.780;5.658;2023-11-21T06:37:57;11.50;85.60
83283;DHT22;73190;50.780;5.658;2023-11-21T06:40:25;11.60;85.60
83283;DHT22;73190;50.780;5.658;2023-11-21T06:42:52;11.50;85.40
83283;DHT22;73190;50.780;5.658;2023-11-21T06:45:20;11.60;85.20
83283;DHT22;73190;50.780;5.658;2023-11-21T06:47:48;11.50;85.40
83283;DHT22;73190;50.780;5.658;2023-11-21T06:50:15;11.50;85.70
83283;DHT22;73190;50.780;5.658;2023-11-21T06:52:43;11.50;85.80
83283;DHT22;73190;50.780;5.658;2023-11-21T06:55:11;11.50;85.60
83283;DHT22;73190;50.780;5.658;2023-11-21T06:57:38;11.60;85.70
83283;DHT22;73190;50.780;5.658;2023-11-21T07:00:06;11.60;86.20
83283;DHT22;73190;50.780;5.658;2023-11-21T07:02:35;11.60;85.40
83283;DHT22;73190;50.780;5.658;2023-11-21T07:05:04;11.60;85.80
83283;DHT22;73190;50.780;5.658;2023-11-21T07:07:32;11.60;85.60
83283;DHT22;73190;50.780;5.658;2023-11-21T07:10:02;11.60;85.40
83283;DHT22;73190;50.780;5.658;2023-11-21T07:12:30;11.60;85.60
83283;DHT22;73190;50.780;5.658;2023-11-21T07:14:58;11.60;85.60
83283;DHT22;73190;50.780;5.658;2023-11-21T07:17:26;11.60;85.70
83283;DHT22;73190;50.780;5.658;2023-11-21T07:19:54;11.70;85.50
83283;DHT22;73190;50.780;5.658;2023-11-21T07:22:22;11.60;85.60
83283;DHT22;73190;50.780;5.658;2023-11-21T07:24:50;11.60;85.90
83283;DHT22;73190;50.780;5.658;2023-11-21T07:27:18;11.70;85.70
83283;DHT22;73190;50.780;5.658;2023-11-21T07:29:45;11.70;85.60
83283;DHT22;73190;50.780;5.658;2023-11-21T07:32:15;11.70;85.70
83283;DHT22;73190;50.780;5.658;2023-11-21T07:34:42;11.70;85.50
83283;DHT22;73190;50.780;5.658;2023-11-21T07:37:10;11.70;85.40
83283;DHT22;73190;50.780;5.658;2023-11-21T07:39:37;11.80;85.20
83283;DHT22;73190;50.780;5.658;2023-11-21T07:42:06;11.70;85.20
83283;DHT22;73190;50.780;5.658;2023-11-21T07:44:34;11.80;85.20
83283;DHT22;73190;50.780;5.658;2023-11-21T07:47:02;11.80;85.30
83283;DHT22;73190;50.780;5.658;2023-11-21T07:49:32;11.70;85.20
83283;DHT22;73190;50.780;5.658;2023-11-21T07:51:59;11.70;85.20
83283;DHT22;73190;50.780;5.658;2023-11-21T07:54:29;11.80;85.10
83283;DHT22;73190;50.780;5.658;2023-11-21T07:56:57;11.90;84.50
83283;DHT22;73190;50.780;5.658;2023-11-21T07:59:25;11.90;84.30
83283;DHT22;73190;50.780;5.658;2023-11-21T08:01:52;11.80;84.50
83283;DHT22;73190;50.780;5.658;2023-11-21T08:04:20;11.80;84.80
83283;DHT22;73190;50.780;5.658;2023-11-21T08:06:48;11.90;84.40
83283;DHT22;73190;50.780;5.658;2023-11-21T08:09:18;11.90;84.30
83283;DHT22;73190;50.780;5.658;2023-11-21T08:11:45;11.80;84.30
83283;DHT22;73190;50.780;5.658;2023-11-21T08:14:13;11.80;84.10
83283;DHT22;73190;50.780;5.658;2023-11-21T08:16:41;11.70;84.30
83283;DHT22;73190;50.780;5.658;2023-11-21T08:19:09;11.80;84.40
83283;DHT22;73190;50.780;5.658;2023-11-21T08:21:36;11.90;84.20
83283;DHT22;73190;50.780;5.658;2023-11-21T08:24:07;11.90;83.60
83283;DHT22;73190;50.780;5.658;2023-11-21T08:26:35;12.00;83.20
83283;DHT22;73190;50.780;5.658;2023-11-21T08:29:03;11.90;83.60
83283;DHT22;73190;50.780;5.658;2023-11-21T08:31:32;11.90;83.60
83283;DHT22;73190;50.780;5.658;2023-11-21T08:34:00;12.00;83.60
83283;DHT22;73190;50.780;5.658;2023-11-21T08:36:30;12.00;83.40
83283;DHT22;73190;50.780;5.658;2023-11-21T08:38:58;12.00;83.30
83283;DHT22;73190;50.780;5.658;2023-11-21T08:41:25;12.10;83.40
83283;DHT22;73190;50.780;5.658;2023-11-21T08:43:54;12.10;83.20
83283;DHT22;73190;50.780;5.658;2023-11-21T08:46:22;12.10;82.90
83283;DHT22;73190;50.780;5.658;2023-11-21T08:48:52;12.20;83.10
83283;DHT22;73190;50.780;5.658;2023-11-21T08:51:20;12.20;82.70
83283;DHT22;73190;50.780;5.658;2023-11-21T08:53:47;12.20;82.70
83283;DHT22;73190;50.780;5.658;2023-11-21T08:56:34;12.20;82.80
83283;DHT22;73190;50.780;5.658;2023-11-21T08:59:02;12.20;82.80
83283;DHT22;73190;50.780;5.658;2023-11-21T09:01:30;12.20;82.70
83283;DHT22;73190;50.780;5.658;2023-11-21T09:03:58;12.20;82.90
83283;DHT22;73190;50.780;5.658;2023-11-21T09:06:25;12.20;82.90
83283;DHT22;73190;50.780;5.658;2023-11-21T09:08:53;12.30;82.70
83283;DHT22;73190;50.780;5.658;2023-11-21T09:11:21;12.30;82.80
83283;DHT22;73190;50.780;5.658;2023-11-21T09:13:48;12.30;82.90
83283;DHT22;73190;50.780;5.658;2023-11-21T09:16:16;12.30;82.90
83283;DHT22;73190;50.780;5.658;2023-11-21T09:18:43;12.30;83.10
83283;DHT22;73190;50.780;5.658;2023-11-21T09:21:11;12.30;83.00
83283;DHT22;73190;50.780;5.658;2023-11-21T09:23:39;12.40;82.70
83283;DHT22;73190;50.780;5.658;2023-11-21T09:26:06;12.30;82.60
83283;DHT22;73190;50.780;5.658;2023-11-21T09:28:34;12.40;82.60
83283;DHT22;73190;50.780;5.658;2023-11-21T09:31:04;12.30;83.50
83283;DHT22;73190;50.780;5.658;2023-11-21T09:33:33;12.30;82.70
83283;DHT22;73190;50.780;5.658;2023-11-21T09:36:02;12.30;82.70
83283;DHT22;73190;50.780;5.658;2023-11-21T09:38:31;12.30;83.00
83283;DHT22;73190;50.780;5.658;2023-11-21T09:41:00;12.30;83.10
83283;DHT22;73190;50.780;5.658;2023-11-21T09:43:28;12.30;83.00
83283;DHT22;73190;50.780;5.658;2023-11-21T09:46:04;12.30;83.10
83283;DHT22;73190;50.780;5.658;2023-11-21T09:48:30;12.40;83.20
83283;DHT22;73190;50.780;5.658;2023-11-21T09:51:00;12.40;83.20
83283;DHT22;73190;50.780;5.658;2023-11-21T09:53:32;12.50;83.10
83283;DHT22;73190;50.780;5.658;2023-11-21T09:56:00;12.60;82.80
83283;DHT22;73190;50.780;5.658;2023-11-21T09:58:29;12.40;82.80
83283;DHT22;73190;50.780;5.658;2023-11-21T10:00:58;12.50;83.40
83283;DHT22;73190;50.780;5.658;2023-11-21T10:03:26;12.60;82.80
83283;DHT22;73190;50.780;5.658;2023-11-21T10:05:57;12.70;82.80
83283;DHT22;73190;50.780;5.658;2023-11-21T10:08:27;12.70;82.60
83283;DHT22;73190;50.780;5.658;2023-11-21T10:10:55;12.70;82.40
83283;DHT22;73190;50.780;5.658;2023-11-21T10:13:24;12.70;82.70
83283;DHT22;73190;50.780;5.658;2023-11-21T10:15:52;12.70;82.60
83283;DHT22;73190;50.780;5.658;2023-11-21T10:18:20;12.80;82.50
83283;DHT22;73190;50.780;5.658;2023-11-21T10:20:49;12.90;82.30
83283;DHT22;73190;50.780;5.658;2023-11-21T10:23:20;12.60;81.30
83283;DHT22;73190;50.780;5.658;2023-11-21T10:25:49;13.00;81.50
83283;DHT22;73190;50.780;5.658;2023-11-21T10:28:19;13.10;81.50
83283;DHT22;73190;50.780;5.658;2023-11-21T10:30:47;13.20;81.60
83283;DHT22;73190;50.780;5.658;2023-11-21T10:33:16;13.40;81.50
83283;DHT22;73190;50.780;5.658;2023-11-21T10:35:47;13.40;79.80
83283;DHT22;73190;50.780;5.658;2023-11-21T10:38:20;13.40;80.10
83283;DHT22;73190;50.780;5.658;2023-11-21T10:40:49;13.20;80.50
83283;DHT22;73190;50.780;5.658;2023-11-21T10:43:18;13.30;80.50
83283;DHT22;73190;50.780;5.658;2023-11-21T10:45:45;13.40;79.90
83283;DHT22;73190;50.780;5.658;2023-11-21T10:48:14;13.40;79.80
83283;DHT22;73190;50.780;5.658;2023-11-21T10:50:46;13.50;79.80
83283;DHT22;73190;50.780;5.658;2023-11-21T10:53:33;13.50;79.40
83283;DHT22;73190;50.780;5.658;2023-11-21T10:56:05;13.20;80.30
83283;DHT22;73190;50.780;5.658;2023-11-21T10:58:33;13.20;81.00
83283;DHT22;73190;50.780;5.658;2023-11-21T11:01:05;13.10;81.70
83283;DHT22;73190;50.780;5.658;2023-11-21T11:03:35;12.90;82.40
83283;DHT22;73190;50.780;5.658;2023-11-21T11:06:05;13.00;82.20
83283;DHT22;73190;50.780;5.658;2023-11-21T11:08:36;13.00;82.20
83283;DHT22;73190;50.780;5.658;2023-11-21T11:11:06;13.10;82.40
83283;DHT22;73190;50.780;5.658;2023-11-21T11:13:33;13.10;82.10
83283;DHT22;73190;50.780;5.658;2023-11-21T11:16:01;13.10;82.20
83283;DHT22;73190;50.780;5.658;2023-11-21T11:18:30;13.10;82.20
83283;DHT22;73190;50.780;5.658;2023-11-21T11:21:06;13.20;82.10
83283;DHT22;73190;50.780;5.658;2023-11-21T11:23:40;13.20;81.80
83283;DHT22;73190;50.780;5.658;2023-11-21T11:31:46;13.10;82.30
83283;DHT22;73190;50.780;5.658;2023-11-21T11:34:30;13.10;82.70
83283;DHT22;73190;50.780;5.658;2023-11-21T11:37:04;13.10;82.90
83283;DHT22;73190;50.780;5.658;2023-11-21T11:39:39;13.10;83.10
83283;DHT22;73190;50.780;5.658;2023-11-21T11:42:13;13.10;83.00
83283;DHT22;73190;50.780;5.658;2023-11-21T11:44:46;13.20;82.90
83283;DHT22;73190;50.780;5.658;2023-11-21T11:47:26;13.20;82.80
83283;DHT22;73190;50.780;5.658;2023-11-21T11:50:19;13.20;82.80
83283;DHT22;73190;50.780;5.658;2023-11-21T11:52:48;13.20;82.80
83283;DHT22;73190;50.780;5.658;2023-11-21T11:55:19;13.20;82.80
83283;DHT22;73190;50.780;5.658;2023-11-21T11:57:53;13.20;82.70
83283;DHT22;73190;50.780;5.658;2023-11-21T12:03:01;13.30;82.40
83283;DHT22;73190;50.780;5.658;2023-11-21T12:05:31;13.20;82.70
83283;DHT22;73190;50.780;5.658;2023-11-21T12:08:03;13.30;82.50
83283;DHT22;73190;50.780;5.658;2023-11-21T12:10:32;13.30;81.90
83283;DHT22;73190;50.780;5.658;2023-11-21T12:13:07;13.30;81.60
83283;DHT22;73190;50.780;5.658;2023-11-21T12:15:37;13.20;82.10
83283;DHT22;73190;50.780;5.658;2023-11-21T12:18:05;13.10;82.50
83283;DHT22;73190;50.780;5.658;2023-11-21T12:20:33;13.10;82.70
83283;DHT22;73190;50.780;5.658;2023-11-21T12:23:06;13.10;83.10
83283;DHT22;73190;50.780;5.658;2023-11-21T12:25:34;13.10;83.10
83283;DHT22;73190;50.780;5.658;2023-11-21T12:28:05;13.10;83.10
83283;DHT22;73190;50.780;5.658;2023-11-21T12:30:34;13.00;83.30
83283;DHT22;73190;50.780;5.658;2023-11-21T12:33:04;13.00;83.60
83283;DHT22;73190;50.780;5.658;2023-11-21T12:35:35;13.00;83.50
83283;DHT22;73190;50.780;5.658;2023-11-21T12:38:05;13.20;83.10
83283;DHT22;73190;50.780;5.658;2023-11-21T12:40:32;13.20;83.40
83283;DHT22;73190;50.780;5.658;2023-11-21T12:43:01;13.20;83.50
83283;DHT22;73190;50.780;5.658;2023-11-21T12:45:30;13.20;83.60
83283;DHT22;73190;50.780;5.658;2023-11-21T12:48:02;13.20;83.50
83283;DHT22;73190;50.780;5.658;2023-11-21T12:50:32;13.20;83.70
83283;DHT22;73190;50.780;5.658;2023-11-21T12:53:09;13.30;84.60
83283;DHT22;73190;50.780;5.658;2023-11-21T12:55:36;13.20;83.70
83283;DHT22;73190;50.780;5.658;2023-11-21T12:58:06;13.20;83.90
83283;DHT22;73190;50.780;5.658;2023-11-21T13:00:48;13.20;83.90
83283;DHT22;73190;50.780;5.658;2023-11-21T13:03:16;13.40;83.30
83283;DHT22;73190;50.780;5.658;2023-11-21T13:05:47;13.40;82.90
83283;DHT22;73190;50.780;5.658;2023-11-21T13:08:21;13.30;83.30
83283;DHT22;73190;50.780;5.658;2023-11-21T13:10:50;13.30;83.60
83283;DHT22;73190;50.780;5.658;2023-11-21T13:13:17;13.30;83.40
83283;DHT22;73190;50.780;5.658;2023-11-21T13:15:50;13.20;83.80
83283;DHT22;73190;50.780;5.658;2023-11-21T13:18:19;13.30;84.10
83283;DHT22;73190;50.780;5.658;2023-11-21T13:20:48;13.20;84.20
83283;DHT22;73190;50.780;5.658;2023-11-21T13:23:16;13.30;84.10
83283;DHT22;73190;50.780;5.658;2023-11-21T13:25:44;13.20;84.20
83283;DHT22;73190;50.780;5.658;2023-11-21T13:28:13;13.30;84.10
83283;DHT22;73190;50.780;5.658;2023-11-21T13:30:42;13.30;84.10
83283;DHT22;73190;50.780;5.658;2023-11-21T13:33:12;13.30;84.30
83283;DHT22;73190;50.780;5.658;2023-11-21T13:35:41;13.30;84.10
83283;DHT22;73190;50.780;5.658;2023-11-21T13:38:11;13.30;84.20
83283;DHT22;73190;50.780;5.658;2023-11-21T13:40:40;13.40;83.70
83283;DHT22;73190;50.780;5.658;2023-11-21T13:43:13;13.40;84.10
83283;DHT22;73190;50.780;5.658;2023-11-21T13:45:43;13.30;84.40
83283;DHT22;73190;50.780;5.658;2023-11-21T13:48:11;13.40;84.30
83283;DHT22;73190;50.780;5.658;2023-11-21T13:50:44;13.30;84.60
83283;DHT22;73190;50.780;5.658;2023-11-21T13:53:13;13.30;84.60
83283;DHT22;73190;50.780;5.658;2023-11-21T13:55:52;13.30;84.70
83283;DHT22;73190;50.780;5.658;2023-11-21T13:58:22;13.40;84.10
83283;DHT22;73190;50.780;5.658;2023-11-21T14:00:51;13.30;83.80
83283;DHT22;73190;50.780;5.658;2023-11-21T14:03:25;13.50;84.20
83283;DHT22;73190;50.780;5.658;2023-11-21T14:05:54;13.80;83.30
83283;DHT22;73190;50.780;5.658;2023-11-21T14:08:23;13.80;83.10
83283;DHT22;73190;50.780;5.658;2023-11-21T14:10:52;13.90;83.20
83283;DHT22;73190;50.780;5.658;2023-11-21T14:13:21;13.90;82.60
83283;DHT22;73190;50.780;5.658;2023-11-21T14:15:50;13.90;82.70
83283;DHT22;73190;50.780;5.658;2023-11-21T14:18:19;13.90;82.70
83283;DHT22;73190;50.780;5.658;2023-11-21T14:20:48;13.90;82.10
83283;DHT22;73190;50.780;5.658;2023-11-21T14:23:17;13.80;82.40
83283;DHT22;73190;50.780;5.658;2023-11-21T14:25:45;13.70;82.70
83283;DHT22;73190;50.780;5.658;2023-11-21T14:28:15;13.70;83.00
83283;DHT22;73190;50.780;5.658;2023-11-21T14:30:43;13.60;83.10
83283;DHT22;73190;50.780;5.658;2023-11-21T14:33:10;13.60;83.40
83283;DHT22;73190;50.780;5.658;2023-11-21T14:35:38;13.60;83.20
83283;DHT22;73190;50.780;5.658;2023-11-21T14:38:06;13.50;83.30
83283;DHT22;73190;50.780;5.658;2023-11-21T14:40:34;13.50;83.60
83283;DHT22;73190;50.780;5.658;2023-11-21T14:43:03;13.40;83.60
83283;DHT22;73190;50.780;5.658;2023-11-21T14:45:34;13.30;84.00
83283;DHT22;73190;50.780;5.658;2023-11-21T14:48:02;13.30;84.40
83283;DHT22;73190;50.780;5.658;2023-11-21T14:50:37;13.30;84.00
83283;DHT22;73190;50.780;5.658;2023-11-21T14:53:06;13.30;84.20
83283;DHT22;73190;50.780;5.658;2023-11-21T14:55:36;13.30;84.10
83283;DHT22;73190;50.780;5.658;2023-11-21T14:58:20;13.20;84.10
83283;DHT22;73190;50.780;5.658;2023-11-21T15:00:59;13.20;83.60
83283;DHT22;73190;50.780;5.658;2023-11-21T15:03:30;13.10;84.20
83283;DHT22;73190;50.780;5.658;2023-11-21T15:06:03;13.10;84.30
83283;DHT22;73190;50.780;5.658;2023-11-21T15:08:51;13.00;84.60
83283;DHT22;73190;50.780;5.658;2023-11-21T15:11:23;13.00;84.80
83283;DHT22;73190;50.780;5.658;2023-11-21T15:13:53;12.80;85.20
83283;DHT22;73190;50.780;5.658;2023-11-21T15:16:20;13.00;84.60
83283;DHT22;73190;50.780;5.658;2023-11-21T15:18:48;12.90;84.90
83283;DHT22;73190;50.780;5.658;2023-11-21T15:21:15;13.00;84.10
83283;DHT22;73190;50.780;5.658;2023-11-21T15:23:43;12.90;84.40
83283;DHT22;73190;50.780;5.658;2023-11-21T15:26:11;12.80;85.00
83283;DHT22;73190;50.780;5.658;2023-11-21T15:28:39;12.80;85.30
83283;DHT22;73190;50.780;5.658;2023-11-21T15:31:08;12.80;84.90
83283;DHT22;73190;50.780;5.658;2023-11-21T15:33:36;12.90;84.70
83283;DHT22;73190;50.780;5.658;2023-11-21T15:36:04;12.80;85.10
83283;DHT22;73190;50.780;5.658;2023-11-21T15:38:33;12.70;85.30
83283;DHT22;73190;50.780;5.658;2023-11-21T15:41:01;12.80;85.00
83283;DHT22;73190;50.780;5.658;2023-11-21T15:43:29;12.70;85.20
83283;DHT22;73190;50.780;5.658;2023-11-21T15:45:56;12.60;85.80
83283;DHT22;73190;50.780;5.658;2023-11-21T15:48:24;12.60;86.10